sensor_id;sensor_type;location;lat;lon;timestamp;P1;durP1;ratioP1;P2;durP2;ratioP2
6902;SDS011;20232;49.408;8.702;2022-09-09T04:02:14;3.20;;;1.53;;
6902;SDS011;20232;49.408;8.702;2022-09-09T04:04:40;4.93;;;1.80;;
6902;SDS011;20232;49.408;8.702;2022-09-09T04:07:06;3.57;;;1.30;;
6902;SDS011;20232;49.408;8.702;2022-09-09T04:09:32;3.47;;;1.40;;
6902;SDS011;20232;49.408;8.702;2022-09-09T04:11:57;4.47;;;1.43;;
6902;SDS011;20232;49.408;8.702;2022-09-09T04:14:24;6.07;;;1.60;;
6902;SDS011;20232;49.408;8.702;2022-09-09T04:16:52;5.43;;;1.47;;
6902;SDS011;20232;49.408;8.702;2022-09-09T04:19:18;4.27;;;1.70;;
6902;SDS011;20232;49.408;8.702;2022-09-09T04:21:44;4.40;;;1.60;;
6902;SDS011;20232;49.408;8.702;2022-09-09T04:24:09;4.50;;;1.30;;
6902;SDS011;20232;49.408;8.702;2022-09-09T04:26:35;3.20;;;1.40;;
6902;SDS011;20232;49.408;8.702;2022-09-09T04:29:02;3.43;;;1.50;;
6902;SDS011;20232;49.408;8.702;2022-09-09T04:31:28;5.83;;;1.60;;
6902;SDS011;20232;49.408;8.702;2022-09-09T04:33:54;2.43;;;1.17;;
6902;SDS011;20232;49.408;8.702;2022-09-09T04:36:20;1.37;;;1.27;;
6902;SDS011;20232;49.408;8.702;2022-09-09T04:38:46;2.70;;;1.30;;
6902;SDS011;20232;49.408;8.702;2022-09-09T04:41:13;2.13;;;1.10;;
6902;SDS011;20232;49.408;8.702;2022-09-09T04:43:40;3.47;;;1.10;;
6902;SDS011;20232;49.408;8.702;2022-09-09T04:46:06;2.60;;;1.20;;
6902;SDS011;20232;49.408;8.702;2022-09-09T04:48:31;2.60;;;1.30;;
6902;SDS011;20232;49.408;8.702;2022-09-09T04:50:58;4.77;;;1.33;;
6902;SDS011;20232;49.408;8.702;2022-09-09T04:53:28;2.23;;;1.17;;
6902;SDS011;20232;49.408;8.702;2022-09-09T04:56:08;2.77;;;1.30;;
6902;SDS011;20232;49.408;8.702;2022-09-09T04:58:35;2.73;;;1.17;;
6902;SDS011;20232;49.408;8.702;2022-09-09T05:01:09;4.97;;;1.47;;
6902;SDS011;20232;49.408;8.702;2022-09-09T05:03:36;2.80;;;1.30;;
6902;SDS011;20232;49.408;8.702;2022-09-09T05:06:12;2.93;;;1.20;;
6902;SDS011;20232;49.408;8.702;2022-09-09T05:08:40;2.30;;;1.17;;
6902;SDS011;20232;49.408;8.702;2022-09-09T05:11:13;3.03;;;2.00;;
6902;SDS011;20232;49.408;8.702;2022-09-09T05:13:48;2.80;;;1.40;;
6902;SDS011;20232;49.408;8.702;2022-09-09T05:16:15;3.10;;;1.50;;
6902;SDS011;20232;49.408;8.702;2022-09-09T05:18:41;4.27;;;1.33;;
6902;SDS011;20232;49.408;8.702;2022-09-09T05:21:11;4.77;;;1.20;;
6902;SDS011;20232;49.408;8.702;2022-09-09T05:23:37;3.37;;;1.40;;
6902;SDS011;20232;49.408;8.702;2022-09-09T05:26:04;4.10;;;1.60;;
6902;SDS011;20232;49.408;8.702;2022-09-09T05:28:30;3.60;;;1.30;;
6902;SDS011;20232;49.408;8.702;2022-09-09T05:30:57;4.03;;;1.27;;
6902;SDS011;20232;49.408;8.702;2022-09-09T05:33:24;1.47;;;1.10;;
6902;SDS011;20232;49.408;8.702;2022-09-09T05:36:00;3.60;;;1.40;;
6902;SDS011;20232;49.408;8.702;2022-09-09T05:38:29;3.07;;;1.40;;
6902;SDS011;20232;49.408;8.702;2022-09-09T05:40:56;4.63;;;1.50;;
6902;SDS011;20232;49.408;8.702;2022-09-09T05:43:22;2.77;;;1.40;;
6902;SDS011;20232;49.408;8.702;2022-09-09T05:45:48;3.00;;;1.10;;
6902;SDS011;20232;49.408;8.702;2022-09-09T05:48:29;2.77;;;1.20;;
6902;SDS011;20232;49.408;8.702;2022-09-09T05:50:59;3.40;;;1.43;;
6902;SDS011;20232;49.408;8.702;2022-09-09T05:53:29;3.77;;;1.40;;
6902;SDS011;20232;49.408;8.702;2022-09-09T05:56:32;2.27;;;1.10;;
6902;SDS011;20232;49.408;8.702;2022-09-09T05:58:52;3.93;;;1.13;;
6902;SDS011;20232;49.408;8.702;2022-09-09T06:01:20;4.13;;;1.60;;
6902;SDS011;20232;49.408;8.702;2022-09-09T06:03:51;2.93;;;1.17;;
6902;SDS011;20232;49.408;8.702;2022-09-09T06:06:18;2.50;;;1.30;;
6902;SDS011;20232;49.408;8.702;2022-09-09T06:08:52;1.57;;;1.20;;
6902;SDS011;20232;49.408;8.702;2022-09-09T06:11:23;3.93;;;1.10;;
6902;SDS011;20232;49.408;8.702;2022-09-09T06:13:51;3.53;;;1.13;;
6902;SDS011;20232;49.408;8.702;2022-09-09T06:16:19;3.03;;;1.20;;
6902;SDS011;20232;49.408;8.702;2022-09-09T06:18:48;2.27;;;1.00;;
6902;SDS011;20232;49.408;8.702;2022-09-09T06:21:24;1.33;;;1.17;;
6902;SDS011;20232;49.408;8.702;2022-09-09T06:23:51;1.97;;;1.27;;
6902;SDS011;20232;49.408;8.702;2022-09-09T06:26:19;3.13;;;1.40;;
6902;SDS011;20232;49.408;8.702;2022-09-09T06:28:52;3.23;;;1.40;;
6902;SDS011;20232;49.408;8.702;2022-09-09T06:31:23;2.03;;;1.30;;
6902;SDS011;20232;49.408;8.702;2022-09-09T06:33:50;2.40;;;1.20;;
6902;SDS011;20232;49.408;8.702;2022-09-09T06:36:19;3.70;;;1.30;;
6902;SDS011;20232;49.408;8.702;2022-09-09T06:38:46;3.03;;;1.30;;
6902;SDS011;20232;49.408;8.702;2022-09-09T06:41:12;2.87;;;1.20;;
6902;SDS011;20232;49.408;8.702;2022-09-09T06:43:40;1.97;;;1.10;;
6902;SDS011;20232;49.408;8.702;2022-09-09T06:46:06;2.37;;;1.10;;
6902;SDS011;20232;49.408;8.702;2022-09-09T06:48:39;5.00;;;1.30;;
6902;SDS011;20232;49.408;8.702;2022-09-09T06:53:37;5.77;;;1.50;;
6902;SDS011;20232;49.408;8.702;2022-09-09T06:58:35;4.83;;;1.37;;
6902;SDS011;20232;49.408;8.702;2022-09-09T07:01:17;2.87;;;1.30;;
6902;SDS011;20232;49.408;8.702;2022-09-09T07:03:52;2.90;;;1.33;;
6902;SDS011;20232;49.408;8.702;2022-09-09T07:06:20;3.73;;;1.40;;
6902;SDS011;20232;49.408;8.702;2022-09-09T07:08:55;4.67;;;1.43;;
6902;SDS011;20232;49.408;8.702;2022-09-09T07:11:23;4.23;;;1.10;;
6902;SDS011;20232;49.408;8.702;2022-09-09T07:13:54;3.90;;;1.50;;
6902;SDS011;20232;49.408;8.702;2022-09-09T07:16:22;2.30;;;1.20;;
6902;SDS011;20232;49.408;8.702;2022-09-09T07:18:52;5.90;;;1.70;;
6902;SDS011;20232;49.408;8.702;2022-09-09T07:21:22;7.50;;;1.50;;
6902;SDS011;20232;49.408;8.702;2022-09-09T07:23:51;4.83;;;1.63;;
6902;SDS011;20232;49.408;8.702;2022-09-09T07:26:17;4.10;;;1.40;;
6902;SDS011;20232;49.408;8.702;2022-09-09T07:28:45;4.23;;;1.53;;
6902;SDS011;20232;49.408;8.702;2022-09-09T07:31:15;5.07;;;1.40;;
6902;SDS011;20232;49.408;8.702;2022-09-09T07:33:43;7.23;;;1.63;;
6902;SDS011;20232;49.408;8.702;2022-09-09T07:36:12;3.67;;;1.37;;
6902;SDS011;20232;49.408;8.702;2022-09-09T07:38:40;4.83;;;1.57;;
6902;SDS011;20232;49.408;8.702;2022-09-09T07:41:09;6.27;;;1.63;;
6902;SDS011;20232;49.408;8.702;2022-09-09T07:43:39;7.77;;;1.67;;
6902;SDS011;20232;49.408;8.702;2022-09-09T07:46:05;7.00;;;1.93;;
6902;SDS011;20232;49.408;8.702;2022-09-09T07:48:31;3.93;;;1.47;;
6902;SDS011;20232;49.408;8.702;2022-09-09T07:51:04;6.93;;;2.00;;
6902;SDS011;20232;49.408;8.702;2022-09-09T07:53:31;7.43;;;1.73;;
6902;SDS011;20232;49.408;8.702;2022-09-09T07:56:02;6.40;;;2.03;;
6902;SDS011;20232;49.408;8.702;2022-09-09T07:58:28;6.80;;;1.60;;
6902;SDS011;20232;49.408;8.702;2022-09-09T08:00:54;6.13;;;1.73;;
6902;SDS011;20232;49.408;8.702;2022-09-09T08:03:19;5.17;;;1.43;;
6902;SDS011;20232;49.408;8.702;2022-09-09T08:05:47;5.93;;;1.80;;
6902;SDS011;20232;49.408;8.702;2022-09-09T08:08:12;5.87;;;1.70;;
6902;SDS011;20232;49.408;8.702;2022-09-09T08:10:38;6.10;;;1.50;;
6902;SDS011;20232;49.408;8.702;2022-09-09T08:13:03;5.87;;;1.63;;
6902;SDS011;20232;49.408;8.702;2022-09-09T08:15:30;5.87;;;1.70;;
6902;SDS011;20232;49.408;8.702;2022-09-09T08:17:57;7.43;;;1.97;;
6902;SDS011;20232;49.408;8.702;2022-09-09T08:20:22;5.37;;;1.60;;
6902;SDS011;20232;49.408;8.702;2022-09-09T08:22:48;5.53;;;1.83;;
6902;SDS011;20232;49.408;8.702;2022-09-09T08:25:14;5.40;;;1.60;;
6902;SDS011;20232;49.408;8.702;2022-09-09T08:27:40;4.33;;;1.57;;
6902;SDS011;20232;49.408;8.702;2022-09-09T08:30:06;6.03;;;1.60;;
6902;SDS011;20232;49.408;8.702;2022-09-09T08:32:32;5.87;;;1.80;;
6902;SDS011;20232;49.408;8.702;2022-09-09T08:34:58;8.00;;;1.53;;
6902;SDS011;20232;49.408;8.702;2022-09-09T08:37:23;4.60;;;1.50;;
6902;SDS011;20232;49.408;8.702;2022-09-09T08:39:49;7.27;;;2.10;;
6902;SDS011;20232;49.408;8.702;2022-09-09T08:50:28;4.07;;;1.60;;
6902;SDS011;20232;49.408;8.702;2022-09-09T08:58:11;6.33;;;1.97;;
6902;SDS011;20232;49.408;8.702;2022-09-09T09:00:42;5.13;;;1.87;;
6902;SDS011;20232;49.408;8.702;2022-09-09T09:06:03;5.70;;;1.70;;
6902;SDS011;20232;49.408;8.702;2022-09-09T09:08:39;6.80;;;1.83;;
6902;SDS011;20232;49.408;8.702;2022-09-09T09:11:18;3.73;;;1.50;;
6902;SDS011;20232;49.408;8.702;2022-09-09T09:13:50;4.80;;;1.40;;
6902;SDS011;20232;49.408;8.702;2022-09-09T09:19:21;4.63;;;1.30;;
6902;SDS011;20232;49.408;8.702;2022-09-09T09:21:54;3.90;;;1.40;;
6902;SDS011;20232;49.408;8.702;2022-09-09T09:24:35;6.03;;;1.40;;
6902;SDS011;20232;49.408;8.702;2022-09-09T09:30:13;4.40;;;1.30;;
6902;SDS011;20232;49.408;8.702;2022-09-09T09:32:43;4.63;;;1.70;;
6902;SDS011;20232;49.408;8.702;2022-09-09T09:35:29;3.53;;;1.30;;
6902;SDS011;20232;49.408;8.702;2022-09-09T09:37:55;4.67;;;1.23;;
6902;SDS011;20232;49.408;8.702;2022-09-09T09:40:21;3.90;;;1.60;;
6902;SDS011;20232;49.408;8.702;2022-09-09T09:42:54;3.93;;;1.70;;
6902;SDS011;20232;49.408;8.702;2022-09-09T09:47:58;3.47;;;1.63;;
6902;SDS011;20232;49.408;8.702;2022-09-09T09:50:25;5.50;;;1.53;;
6902;SDS011;20232;49.408;8.702;2022-09-09T09:52:57;5.33;;;1.70;;
6902;SDS011;20232;49.408;8.702;2022-09-09T09:55:46;5.70;;;1.87;;
6902;SDS011;20232;49.408;8.702;2022-09-09T09:58:25;4.97;;;1.40;;
6902;SDS011;20232;49.408;8.702;2022-09-09T10:00:53;3.87;;;1.50;;
6902;SDS011;20232;49.408;8.702;2022-09-09T10:05:52;7.03;;;1.83;;
6902;SDS011;20232;49.408;8.702;2022-09-09T10:08:19;5.67;;;1.70;;
6902;SDS011;20232;49.408;8.702;2022-09-09T10:16:36;5.57;;;1.70;;
6902;SDS011;20232;49.408;8.702;2022-09-09T10:19:12;6.40;;;1.90;;
6902;SDS011;20232;49.408;8.702;2022-09-09T10:26:55;5.90;;;2.10;;
6902;SDS011;20232;49.408;8.702;2022-09-09T10:35:08;4.33;;;1.73;;
6902;SDS011;20232;49.408;8.702;2022-09-09T10:46:40;3.80;;;1.30;;
6902;SDS011;20232;49.408;8.702;2022-09-09T10:49:36;5.53;;;1.37;;
6902;SDS011;20232;49.408;8.702;2022-09-09T10:55:41;2.53;;;1.27;;
6902;SDS011;20232;49.408;8.702;2022-09-09T10:58:31;3.53;;;1.40;;
6902;SDS011;20232;49.408;8.702;2022-09-09T11:01:21;4.37;;;1.40;;
6902;SDS011;20232;49.408;8.702;2022-09-09T11:03:54;2.33;;;1.20;;
6902;SDS011;20232;49.408;8.702;2022-09-09T11:06:26;3.83;;;1.40;;
6902;SDS011;20232;49.408;8.702;2022-09-09T11:08:58;3.83;;;1.17;;
6902;SDS011;20232;49.408;8.702;2022-09-09T11:12:09;2.87;;;1.13;;
6902;SDS011;20232;49.408;8.702;2022-09-09T11:17:09;3.43;;;1.20;;
6902;SDS011;20232;49.408;8.702;2022-09-09T11:19:39;3.43;;;1.40;;
6902;SDS011;20232;49.408;8.702;2022-09-09T11:32:47;3.97;;;1.47;;
6902;SDS011;20232;49.408;8.702;2022-09-09T11:35:30;5.23;;;1.30;;
6902;SDS011;20232;49.408;8.702;2022-09-09T11:41:04;5.63;;;1.73;;
6902;SDS011;20232;49.408;8.702;2022-09-09T11:43:40;4.67;;;1.43;;
6902;SDS011;20232;49.408;8.702;2022-09-09T11:46:12;3.13;;;1.27;;
6902;SDS011;20232;49.408;8.702;2022-09-09T11:48:43;4.07;;;1.60;;
6902;SDS011;20232;49.408;8.702;2022-09-09T11:51:34;5.53;;;1.47;;
6902;SDS011;20232;49.408;8.702;2022-09-09T11:54:25;3.23;;;1.20;;
6902;SDS011;20232;49.408;8.702;2022-09-09T11:59:59;7.60;;;1.47;;
6902;SDS011;20232;49.408;8.702;2022-09-09T12:02:26;6.30;;;1.47;;
6902;SDS011;20232;49.408;8.702;2022-09-09T12:04:59;4.27;;;1.60;;
6902;SDS011;20232;49.408;8.702;2022-09-09T12:10:04;3.43;;;1.30;;
6902;SDS011;20232;49.408;8.702;2022-09-09T12:12:44;5.93;;;1.17;;
6902;SDS011;20232;49.408;8.702;2022-09-09T12:17:42;4.30;;;1.77;;
6902;SDS011;20232;49.408;8.702;2022-09-09T12:22:50;3.17;;;1.30;;
6902;SDS011;20232;49.408;8.702;2022-09-09T12:33:50;7.57;;;1.40;;
6902;SDS011;20232;49.408;8.702;2022-09-09T12:36:21;4.43;;;1.33;;
6902;SDS011;20232;49.408;8.702;2022-09-09T12:38:50;3.93;;;1.57;;
6902;SDS011;20232;49.408;8.702;2022-09-09T12:41:21;3.90;;;1.17;;
6902;SDS011;20232;49.408;8.702;2022-09-09T12:43:48;3.20;;;1.20;;
6902;SDS011;20232;49.408;8.702;2022-09-09T12:46:23;6.37;;;1.20;;
6902;SDS011;20232;49.408;8.702;2022-09-09T12:48:58;2.63;;;1.20;;
6902;SDS011;20232;49.408;8.702;2022-09-09T12:51:26;4.23;;;1.30;;
6902;SDS011;20232;49.408;8.702;2022-09-09T12:53:54;2.90;;;1.00;;
6902;SDS011;20232;49.408;8.702;2022-09-09T12:56:21;3.77;;;1.10;;
6902;SDS011;20232;49.408;8.702;2022-09-09T12:58:51;3.50;;;1.20;;
6902;SDS011;20232;49.408;8.702;2022-09-09T13:01:29;3.40;;;1.30;;
6902;SDS011;20232;49.408;8.702;2022-09-09T13:03:57;3.77;;;1.40;;
6902;SDS011;20232;49.408;8.702;2022-09-09T13:06:27;3.97;;;1.53;;
6902;SDS011;20232;49.408;8.702;2022-09-09T13:08:54;4.07;;;1.30;;
6902;SDS011;20232;49.408;8.702;2022-09-09T13:11:26;4.23;;;1.27;;
6902;SDS011;20232;49.408;8.702;2022-09-09T13:14:00;3.90;;;1.20;;
6902;SDS011;20232;49.408;8.702;2022-09-09T13:16:28;4.10;;;1.27;;
6902;SDS011;20232;49.408;8.702;2022-09-09T13:19:07;3.63;;;1.43;;
6902;SDS011;20232;49.408;8.702;2022-09-09T13:21:35;3.07;;;1.07;;
6902;SDS011;20232;49.408;8.702;2022-09-09T13:24:02;6.60;;;1.30;;
6902;SDS011;20232;49.408;8.702;2022-09-09T13:26:32;2.73;;;1.20;;
6902;SDS011;20232;49.408;8.702;2022-09-09T13:29:18;3.40;;;1.40;;
6902;SDS011;20232;49.408;8.702;2022-09-09T13:31:44;3.87;;;1.40;;
6902;SDS011;20232;49.408;8.702;2022-09-09T13:34:25;3.67;;;1.00;;
6902;SDS011;20232;49.408;8.702;2022-09-09T13:39:50;2.30;;;0.90;;
6902;SDS011;20232;49.408;8.702;2022-09-09T13:42:22;1.80;;;0.80;;
6902;SDS011;20232;49.408;8.702;2022-09-09T13:44:51;0.73;;;0.60;;
6902;SDS011;20232;49.408;8.702;2022-09-09T13:47:18;2.60;;;0.90;;
6902;SDS011;20232;49.408;8.702;2022-09-09T13:49:44;2.87;;;0.83;;
6902;SDS011;20232;49.408;8.702;2022-09-09T13:52:12;4.10;;;1.30;;
6902;SDS011;20232;49.408;8.702;2022-09-09T13:54:42;2.00;;;0.90;;
6902;SDS011;20232;49.408;8.702;2022-09-09T13:57:19;2.23;;;0.80;;
6902;SDS011;20232;49.408;8.702;2022-09-09T13:59:46;2.17;;;1.10;;
6902;SDS011;20232;49.408;8.702;2022-09-09T14:02:13;1.53;;;0.90;;
6902;SDS011;20232;49.408;8.702;2022-09-09T14:04:39;3.13;;;1.00;;
6902;SDS011;20232;49.408;8.702;2022-09-09T14:07:08;2.60;;;1.00;;
6902;SDS011;20232;49.408;8.702;2022-09-09T14:09:36;1.50;;;0.70;;
6902;SDS011;20232;49.408;8.702;2022-09-09T14:12:02;2.00;;;1.00;;
6902;SDS011;20232;49.408;8.702;2022-09-09T14:14:27;2.00;;;1.00;;
6902;SDS011;20232;49.408;8.702;2022-09-09T14:16:53;3.50;;;1.10;;
6902;SDS011;20232;49.408;8.702;2022-09-09T14:19:19;1.07;;;0.60;;
6902;SDS011;20232;49.408;8.702;2022-09-09T14:21:44;2.67;;;1.07;;
6902;SDS011;20232;49.408;8.702;2022-09-09T14:24:10;2.83;;;1.00;;
6902;SDS011;20232;49.408;8.702;2022-09-09T14:26:37;1.83;;;0.70;;
6902;SDS011;20232;49.408;8.702;2022-09-09T14:29:03;2.03;;;1.07;;
6902;SDS011;20232;49.408;8.702;2022-09-09T14:31:28;2.73;;;1.20;;
6902;SDS011;20232;49.408;8.702;2022-09-09T14:33:54;2.23;;;0.90;;
6902;SDS011;20232;49.408;8.702;2022-09-09T14:36:20;3.47;;;0.93;;
6902;SDS011;20232;49.408;8.702;2022-09-09T14:38:45;1.80;;;0.90;;
6902;SDS011;20232;49.408;8.702;2022-09-09T14:41:12;2.07;;;0.93;;
6902;SDS011;20232;49.408;8.702;2022-09-09T14:43:41;4.43;;;0.90;;
6902;SDS011;20232;49.408;8.702;2022-09-09T14:46:08;2.03;;;1.00;;
6902;SDS011;20232;49.408;8.702;2022-09-09T14:48:35;2.87;;;1.10;;
6902;SDS011;20232;49.408;8.702;2022-09-09T14:51:05;2.97;;;1.07;;
6902;SDS011;20232;49.408;8.702;2022-09-09T14:53:40;2.20;;;0.90;;
6902;SDS011;20232;49.408;8.702;2022-09-09T14:56:10;2.90;;;0.93;;
6902;SDS011;20232;49.408;8.702;2022-09-09T14:58:37;2.70;;;0.80;;
6902;SDS011;20232;49.408;8.702;2022-09-09T15:01:04;2.97;;;1.00;;
6902;SDS011;20232;49.408;8.702;2022-09-09T15:03:30;3.83;;;1.30;;
6902;SDS011;20232;49.408;8.702;2022-09-09T15:05:56;4.30;;;1.40;;
6902;SDS011;20232;49.408;8.702;2022-09-09T15:08:23;3.23;;;1.20;;
6902;SDS011;20232;49.408;8.702;2022-09-09T15:10:49;2.37;;;1.07;;
6902;SDS011;20232;49.408;8.702;2022-09-09T15:13:15;3.23;;;1.30;;
6902;SDS011;20232;49.408;8.702;2022-09-09T15:15:42;2.33;;;1.10;;
6902;SDS011;20232;49.408;8.702;2022-09-09T15:18:08;3.13;;;1.10;;
6902;SDS011;20232;49.408;8.702;2022-09-09T15:20:34;2.70;;;1.17;;
6902;SDS011;20232;49.408;8.702;2022-09-09T15:23:02;3.60;;;1.23;;
6902;SDS011;20232;49.408;8.702;2022-09-09T15:25:27;2.63;;;1.30;;
6902;SDS011;20232;49.408;8.702;2022-09-09T15:27:53;4.47;;;1.43;;
6902;SDS011;20232;49.408;8.702;2022-09-09T15:30:19;4.20;;;1.40;;
6902;SDS011;20232;49.408;8.702;2022-09-09T15:32:44;3.77;;;1.40;;
6902;SDS011;20232;49.408;8.702;2022-09-09T15:35:10;4.57;;;1.20;;
6902;SDS011;20232;49.408;8.702;2022-09-09T15:37:35;3.30;;;1.40;;
6902;SDS011;20232;49.408;8.702;2022-09-09T15:40:01;9.63;;;1.77;;
6902;SDS011;20232;49.408;8.702;2022-09-09T15:42:27;7.93;;;2.40;;
6902;SDS011;20232;49.408;8.702;2022-09-09T15:44:53;5.10;;;1.80;;
6902;SDS011;20232;49.408;8.702;2022-09-09T15:47:18;7.40;;;1.60;;
6902;SDS011;20232;49.408;8.702;2022-09-09T15:49:44;9.43;;;2.10;;
6902;SDS011;20232;49.408;8.702;2022-09-09T15:52:10;5.47;;;1.90;;
6902;SDS011;20232;49.408;8.702;2022-09-09T15:54:36;4.07;;;1.40;;
6902;SDS011;20232;49.408;8.702;2022-09-09T15:57:06;5.23;;;1.30;;
6902;SDS011;20232;49.408;8.702;2022-09-09T15:59:33;2.03;;;1.10;;
6902;SDS011;20232;49.408;8.702;2022-09-09T16:01:59;2.20;;;1.40;;
6902;SDS011;20232;49.408;8.702;2022-09-09T16:04:25;2.90;;;1.13;;
6902;SDS011;20232;49.408;8.702;2022-09-09T16:06:57;3.70;;;1.07;;
6902;SDS011;20232;49.408;8.702;2022-09-09T16:09:25;3.80;;;1.30;;
6902;SDS011;20232;49.408;8.702;2022-09-09T16:11:51;3.13;;;1.40;;
6902;SDS011;20232;49.408;8.702;2022-09-09T16:14:18;1.47;;;1.00;;
6902;SDS011;20232;49.408;8.702;2022-09-09T16:16:44;1.50;;;0.80;;
6902;SDS011;20232;49.408;8.702;2022-09-09T16:19:11;2.57;;;1.17;;
6902;SDS011;20232;49.408;8.702;2022-09-09T16:21:41;2.70;;;0.90;;
6902;SDS011;20232;49.408;8.702;2022-09-09T16:24:10;3.60;;;1.13;;
6902;SDS011;20232;49.408;8.702;2022-09-09T16:26:38;4.10;;;1.77;;
6902;SDS011;20232;49.408;8.702;2022-09-09T16:29:08;2.03;;;1.23;;
6902;SDS011;20232;49.408;8.702;2022-09-09T16:31:33;2.83;;;1.10;;
6902;SDS011;20232;49.408;8.702;2022-09-09T16:33:59;2.43;;;1.20;;
6902;SDS011;20232;49.408;8.702;2022-09-09T16:36:26;3.83;;;1.10;;
6902;SDS011;20232;49.408;8.702;2022-09-09T16:38:53;1.87;;;1.27;;
6902;SDS011;20232;49.408;8.702;2022-09-09T16:41:22;3.27;;;1.40;;
6902;SDS011;20232;49.408;8.702;2022-09-09T16:43:52;2.80;;;1.40;;
6902;SDS011;20232;49.408;8.702;2022-09-09T16:46:19;2.47;;;1.30;;
6902;SDS011;20232;49.408;8.702;2022-09-09T16:48:46;3.70;;;2.00;;
6902;SDS011;20232;49.408;8.702;2022-09-09T16:51:16;4.13;;;1.93;;
6902;SDS011;20232;49.408;8.702;2022-09-09T16:53:44;4.37;;;1.40;;
6902;SDS011;20232;49.408;8.702;2022-09-09T16:56:12;3.90;;;1.50;;
6902;SDS011;20232;49.408;8.702;2022-09-09T16:58:41;3.07;;;1.20;;
6902;SDS011;20232;49.408;8.702;2022-09-09T17:01:10;3.87;;;1.67;;
6902;SDS011;20232;49.408;8.702;2022-09-09T17:03:39;3.20;;;2.00;;
6902;SDS011;20232;49.408;8.702;2022-09-09T17:06:08;3.57;;;1.70;;
6902;SDS011;20232;49.408;8.702;2022-09-09T17:08:39;4.80;;;1.80;;
6902;SDS011;20232;49.408;8.702;2022-09-09T17:11:24;4.83;;;1.60;;
6902;SDS011;20232;49.408;8.702;2022-09-09T17:13:51;3.90;;;1.50;;
6902;SDS011;20232;49.408;8.702;2022-09-09T17:16:18;3.20;;;1.80;;
6902;SDS011;20232;49.408;8.702;2022-09-09T17:18:48;2.73;;;1.80;;
6902;SDS011;20232;49.408;8.702;2022-09-09T17:21:15;3.20;;;1.60;;
6902;SDS011;20232;49.408;8.702;2022-09-09T17:23:43;3.50;;;1.40;;
6902;SDS011;20232;49.408;8.702;2022-09-09T17:26:10;2.43;;;1.63;;
6902;SDS011;20232;49.408;8.702;2022-09-09T17:28:38;3.27;;;1.80;;
6902;SDS011;20232;49.408;8.702;2022-09-09T17:31:05;3.70;;;1.90;;
6902;SDS011;20232;49.408;8.702;2022-09-09T17:33:32;4.07;;;2.00;;
6902;SDS011;20232;49.408;8.702;2022-09-09T17:36:07;3.60;;;1.90;;
6902;SDS011;20232;49.408;8.702;2022-09-09T17:38:36;3.00;;;1.90;;
6902;SDS011;20232;49.408;8.702;2022-09-09T17:41:05;2.87;;;1.70;;
6902;SDS011;20232;49.408;8.702;2022-09-09T17:43:33;5.07;;;1.90;;
6902;SDS011;20232;49.408;8.702;2022-09-09T17:46:08;3.33;;;1.60;;
6902;SDS011;20232;49.408;8.702;2022-09-09T17:48:35;7.80;;;2.10;;
6902;SDS011;20232;49.408;8.702;2022-09-09T17:51:02;4.53;;;2.30;;
6902;SDS011;20232;49.408;8.702;2022-09-09T17:53:29;6.87;;;2.10;;
6902;SDS011;20232;49.408;8.702;2022-09-09T17:55:56;5.40;;;2.73;;
6902;SDS011;20232;49.408;8.702;2022-09-09T17:58:30;6.03;;;2.90;;
6902;SDS011;20232;49.408;8.702;2022-09-09T18:00:55;5.57;;;2.10;;
6902;SDS011;20232;49.408;8.702;2022-09-09T18:03:25;5.27;;;2.30;;
6902;SDS011;20232;49.408;8.702;2022-09-09T18:05:58;3.13;;;2.10;;
6902;SDS011;20232;49.408;8.702;2022-09-09T18:08:25;5.57;;;2.20;;
6902;SDS011;20232;49.408;8.702;2022-09-09T18:10:52;5.23;;;2.17;;
6902;SDS011;20232;49.408;8.702;2022-09-09T18:13:19;6.03;;;2.30;;
6902;SDS011;20232;49.408;8.702;2022-09-09T18:15:45;3.57;;;1.80;;
6902;SDS011;20232;49.408;8.702;2022-09-09T18:18:11;3.90;;;2.00;;
6902;SDS011;20232;49.408;8.702;2022-09-09T18:20:38;3.40;;;1.90;;
6902;SDS011;20232;49.408;8.702;2022-09-09T18:23:04;6.07;;;2.30;;
6902;SDS011;20232;49.408;8.702;2022-09-09T18:25:30;5.37;;;1.80;;
6902;SDS011;20232;49.408;8.702;2022-09-09T18:28:01;4.63;;;1.70;;
6902;SDS011;20232;49.408;8.702;2022-09-09T18:30:27;2.27;;;1.87;;
6902;SDS011;20232;49.408;8.702;2022-09-09T18:32:54;5.30;;;1.90;;
6902;SDS011;20232;49.408;8.702;2022-09-09T18:35:20;3.07;;;1.97;;
6902;SDS011;20232;49.408;8.702;2022-09-09T18:37:46;3.37;;;1.77;;
6902;SDS011;20232;49.408;8.702;2022-09-09T18:40:11;5.87;;;1.80;;
6902;SDS011;20232;49.408;8.702;2022-09-09T18:42:37;3.60;;;2.00;;
6902;SDS011;20232;49.408;8.702;2022-09-09T18:45:03;3.83;;;2.00;;
6902;SDS011;20232;49.408;8.702;2022-09-09T18:47:28;3.83;;;1.53;;
6902;SDS011;20232;49.408;8.702;2022-09-09T18:49:54;3.50;;;1.67;;
6902;SDS011;20232;49.408;8.702;2022-09-09T18:52:20;1.93;;;1.13;;
6902;SDS011;20232;49.408;8.702;2022-09-09T18:54:45;3.93;;;1.63;;
6902;SDS011;20232;49.408;8.702;2022-09-09T18:57:12;6.27;;;2.00;;
6902;SDS011;20232;49.408;8.702;2022-09-09T18:59:38;5.83;;;1.80;;
6902;SDS011;20232;49.408;8.702;2022-09-09T19:02:03;3.73;;;1.93;;
6902;SDS011;20232;49.408;8.702;2022-09-09T19:04:30;4.43;;;1.73;;
6902;SDS011;20232;49.408;8.702;2022-09-09T19:06:56;4.10;;;2.00;;
6902;SDS011;20232;49.408;8.702;2022-09-09T19:09:23;6.53;;;1.83;;
6902;SDS011;20232;49.408;8.702;2022-09-09T19:11:50;3.60;;;1.70;;
6902;SDS011;20232;49.408;8.702;2022-09-09T19:14:16;4.13;;;1.63;;
6902;SDS011;20232;49.408;8.702;2022-09-09T19:16:42;6.20;;;1.80;;
6902;SDS011;20232;49.408;8.702;2022-09-09T19:19:19;4.80;;;1.77;;
6902;SDS011;20232;49.408;8.702;2022-09-09T19:21:46;1.50;;;1.40;;
6902;SDS011;20232;49.408;8.702;2022-09-09T19:24:17;2.40;;;1.40;;
6902;SDS011;20232;49.408;8.702;2022-09-09T19:26:46;3.17;;;1.40;;
6902;SDS011;20232;49.408;8.702;2022-09-09T19:29:15;2.13;;;1.60;;
6902;SDS011;20232;49.408;8.702;2022-09-09T19:31:43;2.57;;;1.60;;
6902;SDS011;20232;49.408;8.702;2022-09-09T19:34:09;1.63;;;1.30;;
6902;SDS011;20232;49.408;8.702;2022-09-09T19:36:36;4.27;;;1.40;;
6902;SDS011;20232;49.408;8.702;2022-09-09T19:39:02;2.40;;;1.40;;
6902;SDS011;20232;49.408;8.702;2022-09-09T19:41:29;2.30;;;1.40;;
6902;SDS011;20232;49.408;8.702;2022-09-09T19:43:58;1.87;;;1.10;;
6902;SDS011;20232;49.408;8.702;2022-09-09T19:46:29;3.70;;;1.20;;
6902;SDS011;20232;49.408;8.702;2022-09-09T19:48:56;1.40;;;0.90;;
6902;SDS011;20232;49.408;8.702;2022-09-09T19:51:24;2.93;;;1.10;;
6902;SDS011;20232;49.408;8.702;2022-09-09T19:53:52;1.10;;;0.90;;
6902;SDS011;20232;49.408;8.702;2022-09-09T19:56:22;1.70;;;1.30;;
6902;SDS011;20232;49.408;8.702;2022-09-09T19:58:50;1.67;;;1.30;;
6902;SDS011;20232;49.408;8.702;2022-09-09T20:01:20;1.50;;;1.20;;
6902;SDS011;20232;49.408;8.702;2022-09-09T20:03:48;1.67;;;1.10;;
6902;SDS011;20232;49.408;8.702;2022-09-09T20:06:17;1.97;;;1.13;;
6902;SDS011;20232;49.408;8.702;2022-09-09T20:08:44;1.13;;;1.00;;
6902;SDS011;20232;49.408;8.702;2022-09-09T20:11:12;1.37;;;0.90;;
6902;SDS011;20232;49.408;8.702;2022-09-09T20:13:38;1.97;;;1.03;;
6902;SDS011;20232;49.408;8.702;2022-09-09T20:16:06;2.03;;;0.90;;
6902;SDS011;20232;49.408;8.702;2022-09-09T20:18:34;1.67;;;1.30;;
6902;SDS011;20232;49.408;8.702;2022-09-09T20:21:05;2.93;;;1.40;;
6902;SDS011;20232;49.408;8.702;2022-09-09T20:23:34;2.70;;;1.20;;
6902;SDS011;20232;49.408;8.702;2022-09-09T20:26:02;1.57;;;1.20;;
6902;SDS011;20232;49.408;8.702;2022-09-09T20:28:31;2.97;;;1.40;;
6902;SDS011;20232;49.408;8.702;2022-09-09T20:31:02;4.77;;;1.30;;
6902;SDS011;20232;49.408;8.702;2022-09-09T20:33:35;4.00;;;1.70;;
6902;SDS011;20232;49.408;8.702;2022-09-09T20:36:08;3.47;;;1.40;;
6902;SDS011;20232;49.408;8.702;2022-09-09T20:38:35;3.10;;;1.70;;
6902;SDS011;20232;49.408;8.702;2022-09-09T20:41:02;2.53;;;1.63;;
6902;SDS011;20232;49.408;8.702;2022-09-09T20:43:28;6.27;;;1.83;;
6902;SDS011;20232;49.408;8.702;2022-09-09T20:45:54;4.17;;;1.97;;
6902;SDS011;20232;49.408;8.702;2022-09-09T20:48:22;3.67;;;2.00;;
6902;SDS011;20232;49.408;8.702;2022-09-09T20:50:48;4.77;;;2.37;;
6902;SDS011;20232;49.408;8.702;2022-09-09T20:53:14;2.03;;;1.60;;